Time;durP1;ratioP1;P1;durP2;ratioP2;P2;SDS_P1;SDS_P2;PMS_P1;PMS_P2;Temp;Humidity;BMP_temperature;BMP_pressure;BME280_temperature;BME280_humidity;BME280_pressure;Samples;Min_cycle;Max_cycle;Signal;HPM_P1;HPM_P2
2022/06/29 00:02:32;;;;;;;12.2;14.3;;;;;;;19.7;100;98860;;;;
2022/06/29 00:13:32;;;;;;;9.7;14;;;;;;;19.7;100;98840;;;;
2022/06/29 00:24:32;;;;;;;9.7;14;;;;;;;19.8;100;98850;;;;
2022/06/29 00:35:32;;;;;;;9.7;14;;;;;;;20.1;100;98830;;;;
2022/06/29 00:45:32;;;;;;;10.3;13.7;;;;;;;20.1;100;98820;;;;
2022/06/29 00:56:32;;;;;;;10.3;13.7;;;;;;;19.9;100;98810;;;;
2022/06/29 01:07:32;;;;;;;10.3;12.9;;;;;;;20;100;98800;;;;
2022/06/29 01:18:32;;;;;;;10.3;12.9;;;;;;;20;100;98790;;;;
2022/06/29 01:28:32;;;;;;;10.3;12.9;;;;;;;19.9;100;98770;;;;
2022/06/29 01:38:32;;;;;;;10.5;13.1;;;;;;;19.9;100;98750;;;;
2022/06/29 01:48:32;;;;;;;10.5;13.1;;;;;;;20;100;98760;;;;
2022/06/29 01:59:32;;;;;;;10.5;13.1;;;;;;;20.1;100;98780;;;;
2022/06/29 02:10:32;;;;;;;12;16;;;;;;;20.1;100;98760;;;;
2022/06/29 02:20:32;;;;;;;12;16;;;;;;;19.9;100;98740;;;;
2022/06/29 02:40:32;;;;;;;11.7;13.9;;;;;;;20.1;100;98760;;;;
2022/06/29 02:50:32;;;;;;;11.7;13.9;;;;;;;20.3;100;98740;;;;
2022/06/29 03:00:32;;;;;;;11.7;13.9;;;;;;;20.5;100;98750;;;;
2022/06/29 03:11:32;;;;;;;11.2;13.8;;;;;;;20.6;100;98750;;;;
2022/06/29 03:21:32;;;;;;;11.2;13.8;;;;;;;20.7;100;98750;;;;
2022/06/29 03:32:32;;;;;;;11.2;13.8;;;;;;;20.6;100;98720;;;;
2022/06/29 03:42:32;;;;;;;10.8;16.6;;;;;;;20.3;100;98710;;;;
2022/06/29 03:52:32;;;;;;;10.8;16.6;;;;;;;20.6;100;98720;;;;
2022/06/29 04:03:32;;;;;;;10.8;16.6;;;;;;;20.4;100;98720;;;;
2022/06/29 04:13:32;;;;;;;8.6;11.6;;;;;;;20.4;100;98720;;;;
2022/06/29 04:23:32;;;;;;;8.6;11.6;;;;;;;20.5;100;98700;;;;
2022/06/29 04:34:32;;;;;;;8.6;11.6;;;;;;;20.7;100;98700;;;;
2022/06/29 04:46:36;;;;;;;10.2;13.5;;;;;;;20.8;100;98720;;;;
2022/06/29 04:56:32;;;;;;;10.2;13.5;;;;;;;21.2;100;98720;;;;
2022/06/29 05:06:32;;;;;;;12.7;19.7;;;;;;;21.3;100;98710;;;;
2022/06/29 05:17:36;;;;;;;12.7;19.7;;;;;;;21.8;100;98710;;;;
2022/06/29 05:27:32;;;;;;;12.7;19.7;;;;;;;21.9;100;98720;;;;
2022/06/29 05:37:32;;;;;;;13.2;15.7;;;;;;;22;100;98720;;;;
2022/06/29 05:48:32;;;;;;;13.2;15.7;;;;;;;22.2;100;98720;;;;
2022/06/29 05:58:32;;;;;;;13.2;15.7;;;;;;;22.6;100;98720;;;;
2022/06/29 06:08:32;;;;;;;14;17.3;;;;;;;22.2;100;98720;;;;
2022/06/29 06:19:32;;;;;;;14;17.3;;;;;;;22.8;100;98730;;;;
2022/06/29 06:30:32;;;;;;;14;17.3;;;;;;;23;100;98720;;;;
2022/06/29 06:41:35;;;;;;;10.3;12.8;;;;;;;23.3;100;98720;;;;
2022/06/29 06:50:32;;;;;;;10.3;12.8;;;;;;;24;100;98700;;;;
2022/06/29 07:01:32;;;;;;;10.3;12.8;;;;;;;24.7;100;98700;;;;
2022/06/29 07:11:32;;;;;;;9.2;11.8;;;;;;;25.2;100;98700;;;;
2022/06/29 07:22:32;;;;;;;9.2;11.8;;;;;;;25.7;100;98700;;;;
2022/06/29 07:33:32;;;;;;;9.2;11.8;;;;;;;26.6;100;98690;;;;
2022/06/29 07:43:32;;;;;;;8.6;10.3;;;;;;;25.7;100;98680;;;;
2022/06/29 07:54:32;;;;;;;8.6;10.3;;;;;;;26;100;98680;;;;
2022/06/29 08:04:32;;;;;;;8.6;10.3;;;;;;;26.7;100;98670;;;;
2022/06/29 08:15:32;;;;;;;7.3;10.4;;;;;;;26.7;100;98660;;;;
2022/06/29 08:26:32;;;;;;;7.3;10.4;;;;;;;26.2;100;98650;;;;
2022/06/29 08:37:32;;;;;;;6.6;9.1;;;;;;;26.6;100;98630;;;;
2022/06/29 08:48:32;;;;;;;6.6;9.1;;;;;;;27.1;100;98630;;;;
2022/06/29 08:58:32;;;;;;;6.6;9.1;;;;;;;26.6;100;98620;;;;
2022/06/29 09:09:32;;;;;;;7.1;9.2;;;;;;;27.3;100;98610;;;;
2022/06/29 09:19:32;;;;;;;7.1;9.2;;;;;;;27.4;100;98620;;;;
2022/06/29 09:30:32;;;;;;;7.1;9.2;;;;;;;27.7;100;98620;;;;
2022/06/29 09:40:32;;;;;;;6.6;10;;;;;;;27.9;100;98610;;;;
2022/06/29 09:51:32;;;;;;;6.6;10;;;;;;;28.3;100;98600;;;;
2022/06/29 10:02:36;;;;;;;6.6;10;;;;;;;28.2;100;98600;;;;
2022/06/29 10:13:39;;;;;;;7.8;11;;;;;;;28.4;100;98590;;;;
2022/06/29 10:24:32;;;;;;;7.8;11;;;;;;;28.6;100;98590;;;;
2022/06/29 10:34:32;;;;;;;7.8;11;;;;;;;28.7;100;98590;;;;
2022/06/29 10:44:32;;;;;;;8.6;12;;;;;;;29.1;100;98580;;;;
2022/06/29 10:54:32;;;;;;;8.6;12;;;;;;;29.4;100;98590;;;;
2022/06/29 11:05:32;;;;;;;8.6;12;;;;;;;29.3;100;98580;;;;
2022/06/29 11:16:32;;;;;;;7.9;9.8;;;;;;;29.5;100;98560;;;;
2022/06/29 11:26:32;;;;;;;7.9;9.8;;;;;;;29.8;100;98550;;;;
2022/06/29 11:37:32;;;;;;;8.1;10.2;;;;;;;30.4;100;98540;;;;
2022/06/29 11:47:32;;;;;;;8.1;10.2;;;;;;;30.5;100;98540;;;;
2022/06/29 11:58:32;;;;;;;8.1;10.2;;;;;;;31;100;98510;;;;
2022/06/29 12:08:32;;;;;;;8;11;;;;;;;31;100;98520;;;;
2022/06/29 12:19:32;;;;;;;8;11;;;;;;;31.2;100;98510;;;;
2022/06/29 12:29:32;;;;;;;8;11;;;;;;;31.8;100;98500;;;;
2022/06/29 12:39:32;;;;;;;7.1;10.4;;;;;;;31.9;100;98490;;;;
2022/06/29 12:49:32;;;;;;;7.1;10.4;;;;;;;32.1;100;98470;;;;
2022/06/29 12:59:32;;;;;;;7.1;10.4;;;;;;;32.2;100;98470;;;;
2022/06/29 13:10:32;;;;;;;7.5;11.4;;;;;;;32;100;98470;;;;
2022/06/29 13:21:33;;;;;;;7.5;11.4;;;;;;;32;97.3;98470;;;;
2022/06/29 13:32:33;;;;;;;7.5;11.4;;;;;;;31.9;97.2;98440;;;;
2022/06/29 13:43:32;;;;;;;7.2;10.7;;;;;;;32.3;95.8;98440;;;;
2022/06/29 13:53:33;;;;;;;7.2;10.7;;;;;;;32.7;92.8;98440;;;;
2022/06/29 14:04:32;;;;;;;7.2;10.7;;;;;;;32.9;93.2;98440;;;;
2022/06/29 14:15:32;;;;;;;6.8;11.7;;;;;;;32.9;89.6;98440;;;;
2022/06/29 14:25:32;;;;;;;6.8;11.7;;;;;;;34.1;88.1;98430;;;;
2022/06/29 14:36:32;;;;;;;6.8;11.7;;;;;;;32.7;95.7;98420;;;;
2022/06/29 14:46:32;;;;;;;7.9;12.2;;;;;;;32.8;96.8;98390;;;;
2022/06/29 14:56:32;;;;;;;7.9;12.2;;;;;;;33.3;95.6;98390;;;;
2022/06/29 15:07:32;;;;;;;7;11.1;;;;;;;32.3;97.8;98410;;;;
2022/06/29 15:18:32;;;;;;;7;11.1;;;;;;;31.7;100;98370;;;;
2022/06/29 15:29:32;;;;;;;7;11.1;;;;;;;31.5;100;98390;;;;
2022/06/29 15:40:32;;;;;;;7.4;12;;;;;;;30.9;100;98370;;;;
2022/06/29 15:51:32;;;;;;;7.4;12;;;;;;;30.5;100;98390;;;;
2022/06/29 16:01:32;;;;;;;7.4;12;;;;;;;29.9;100;98390;;;;
2022/06/29 16:12:32;;;;;;;6.4;10.6;;;;;;;29.6;100;98370;;;;
2022/06/29 16:23:32;;;;;;;6.4;10.6;;;;;;;29.2;100;98360;;;;
2022/06/29 16:33:32;;;;;;;6.4;10.6;;;;;;;28.5;100;98350;;;;
2022/06/29 16:43:32;;;;;;;12.2;18.1;;;;;;;28.2;100;98350;;;;
2022/06/29 16:54:32;;;;;;;12.2;18.1;;;;;;;27.9;100;98360;;;;
2022/06/29 17:05:32;;;;;;;12.2;18.1;;;;;;;27.8;100;98360;;;;
2022/06/29 17:16:32;;;;;;;9.5;17.5;;;;;;;27.3;100;98340;;;;
2022/06/29 17:27:32;;;;;;;9.5;17.5;;;;;;;27;100;98350;;;;
2022/06/29 17:47:27;;;;;;;11;15.1;;;;;;;26.4;100;98340;;;;
2022/06/29 17:57:27;;;;;;;11;15.1;;;;;;;26.3;100;98340;;;;
2022/06/29 18:07:27;;;;;;;11;15.1;;;;;;;26;100;98320;;;;
2022/06/29 18:17:27;;;;;;;10.2;12.7;;;;;;;25.4;100;98320;;;;
2022/06/29 18:27:27;;;;;;;10.2;12.7;;;;;;;25.4;100;98300;;;;
2022/06/29 18:38:27;;;;;;;9.1;12.3;;;;;;;25.1;100;98280;;;;
2022/06/29 18:48:28;;;;;;;9.1;12.3;;;;;;;24.8;100;98330;;;;
2022/06/29 18:59:27;;;;;;;9.1;12.3;;;;;;;24.3;100;98330;;;;
2022/06/29 19:10:27;;;;;;;8.2;11.4;;;;;;;24.1;100;98340;;;;
2022/06/29 19:21:27;;;;;;;8.2;11.4;;;;;;;24;100;98350;;;;
2022/06/29 19:31:27;;;;;;;8.2;11.4;;;;;;;23.5;100;98360;;;;
2022/06/29 19:41:27;;;;;;;8.6;13.6;;;;;;;23.6;100;98360;;;;
2022/06/29 19:51:27;;;;;;;8.6;13.6;;;;;;;23.4;100;98360;;;;
2022/06/29 20:01:27;;;;;;;8.6;13.6;;;;;;;23.1;100;98350;;;;
2022/06/29 20:11:27;;;;;;;8.5;11.2;;;;;;;23.1;100;98360;;;;
2022/06/29 20:21:27;;;;;;;8.5;11.2;;;;;;;23;100;98360;;;;
2022/06/29 20:32:27;;;;;;;8.5;11.2;;;;;;;23;100;98350;;;;
2022/06/29 20:42:27;;;;;;;9.5;13.5;;;;;;;22.8;100;98350;;;;
2022/06/29 20:52:27;;;;;;;9.5;13.5;;;;;;;22.8;100;98370;;;;
2022/06/29 21:03:27;;;;;;;9.5;13.5;;;;;;;22.7;100;98350;;;;
2022/06/29 21:14:27;;;;;;;10.7;13.8;;;;;;;22.8;100;98350;;;;
2022/06/29 21:25:27;;;;;;;10.7;13.8;;;;;;;22.8;100;98360;;;;
2022/06/29 21:36:27;;;;;;;10.7;13.8;;;;;;;22.6;100;98360;;;;
2022/06/29 21:47:27;;;;;;;10.7;14.6;;;;;;;22.4;100;98360;;;;
2022/06/29 21:57:27;;;;;;;10.7;14.6;;;;;;;22.4;100;98350;;;;
2022/06/29 22:07:27;;;;;;;10.7;14.6;;;;;;;22.2;100;98350;;;;
2022/06/29 22:18:27;;;;;;;11.8;14.1;;;;;;;22;100;98350;;;;
2022/06/29 22:29:27;;;;;;;11.8;14.1;;;;;;;22;100;98360;;;;
2022/06/29 22:40:27;;;;;;;12;15.3;;;;;;;21.8;100;98350;;;;
2022/06/29 22:50:27;;;;;;;12;15.3;;;;;;;21.7;100;98340;;;;
2022/06/29 23:01:27;;;;;;;12;15.3;;;;;;;21.5;100;98320;;;;
2022/06/29 23:12:30;;;;;;;12.7;17.2;;;;;;;21.5;100;98310;;;;
2022/06/29 23:23:27;;;;;;;12.7;17.2;;;;;;;21.6;100;98300;;;;
2022/06/29 23:33:28;;;;;;;12.7;17.2;;;;;;;21.6;100;98310;;;;
2022/06/29 23:44:27;;;;;;;12.9;14.3;;;;;;;21.6;100;98320;;;;
2022/06/29 23:55:27;;;;;;;12.9;14.3;;;;;;;21.4;100;98310;;;;
